Time,TemperatureF,DewpointF,PressureIn,WindDirection,WindDirectionDegrees,WindSpeedMPH,WindSpeedGustMPH,Humidity,HourlyPrecipIn,Conditions,Clouds,dailyrainin,SoftwareType,DateUTC
2013-09-22 00:02:00,-999.0,-99.9,29.82,SW,223,7.0,15.0,-999,-99.99,,,-99.99,,2013-09-22 04:02:00,
2013-09-22 00:14:00,72.0,66.0,29.82,SW,223,7.0,15.0,82,0.00,,,0.01,,2013-09-22 04:14:00,
2013-09-22 00:23:00,72.0,66.0,29.82,West,266,7.0,15.0,82,0.00,,,0.01,,2013-09-22 04:23:00,
2013-09-22 00:44:00,72.0,66.0,29.80,WNW,282,7.0,16.0,81,0.00,,,0.01,,2013-09-22 04:44:00,
2013-09-22 00:54:00,72.0,66.0,29.80,WNW,283,8.0,16.0,81,0.00,,,0.01,,2013-09-22 04:54:00,
2013-09-22 01:13:00,72.0,65.0,29.79,WNW,289,7.0,15.0,80,0.00,,,0.01,,2013-09-22 05:13:00,
2013-09-22 01:23:00,72.0,65.0,29.79,West,265,8.0,15.0,79,0.00,,,0.01,,2013-09-22 05:23:00,
2013-09-22 01:53:00,72.0,66.0,29.78,WNW,283,9.0,17.0,81,0.00,,,0.01,,2013-09-22 05:53:00,
2013-09-22 02:12:00,72.0,66.0,29.77,West,260,8.0,16.0,82,0.00,,,0.01,,2013-09-22 06:12:00,
2013-09-22 02:22:00,72.0,66.0,29.77,WNW,284,8.0,16.0,82,0.00,,,0.01,,2013-09-22 06:22:00,
2013-09-22 02:52:00,72.0,66.0,29.75,WSW,247,9.0,18.0,82,0.00,,,0.01,,2013-09-22 06:52:00,
2013-09-22 03:12:00,72.0,67.0,29.74,WSW,248,9.0,19.0,83,0.00,,,0.01,,2013-09-22 07:12:00,
2013-09-22 03:22:00,72.0,67.0,29.74,WNW,299,9.0,18.0,83,0.00,,,0.01,,2013-09-22 07:22:00,
2013-09-22 03:42:00,72.0,67.0,29.73,WNW,284,9.0,17.0,85,0.00,,,0.01,,2013-09-22 07:42:00,
2013-09-22 03:52:00,71.0,66.0,29.73,West,264,9.0,17.0,85,0.00,,,0.01,,2013-09-22 07:52:00,
2013-09-22 04:12:00,71.0,67.0,29.72,WSW,252,9.0,19.0,86,0.00,,,0.01,,2013-09-22 08:12:00,
2013-09-22 04:22:00,71.0,67.0,29.73,WSW,250,8.0,18.0,86,0.00,,,0.01,,2013-09-22 08:22:00,
2013-09-22 04:52:00,71.0,66.0,29.72,West,272,9.0,17.0,85,0.00,,,0.01,,2013-09-22 08:52:00,
2013-09-22 05:11:00,71.0,66.0,29.71,SSW,211,9.0,16.0,84,0.00,,,0.01,,2013-09-22 09:11:00,
2013-09-22 05:22:00,72.0,67.0,29.72,WNW,300,8.0,15.0,85,0.00,,,0.01,,2013-09-22 09:22:00,
2013-09-22 05:43:00,72.0,67.0,29.72,West,259,9.0,17.0,85,0.00,,,0.01,,2013-09-22 09:43:00,
2013-09-22 05:54:00,72.0,67.0,29.71,WSW,238,10.0,19.0,85,0.00,,,0.01,,2013-09-22 09:54:00,
2013-09-22 06:12:00,72.0,67.0,29.71,West,274,9.0,17.0,84,0.00,,,0.00,,2013-09-22 10:12:00,
2013-09-22 06:23:00,71.0,67.0,29.71,West,279,12.0,26.0,87,0.00,,,0.00,,2013-09-22 10:23:00,
2013-09-22 06:44:00,71.0,67.0,29.71,West,278,10.0,26.0,86,0.00,,,0.00,,2013-09-22 10:44:00,
2013-09-22 06:53:00,72.0,67.0,29.70,WSW,251,10.0,17.0,84,0.00,,,0.00,,2013-09-22 10:53:00,
2013-09-22 07:12:00,72.0,67.0,29.70,WSW,246,9.0,16.0,84,0.00,,,0.00,,2013-09-22 11:12:00,
2013-09-22 07:22:00,72.0,67.0,29.70,WSW,254,10.0,17.0,85,0.00,,,0.00,,2013-09-22 11:22:00,
2013-09-22 07:42:00,72.0,67.0,29.70,West,277,11.0,19.0,85,0.00,,,0.00,,2013-09-22 11:42:00,
2013-09-22 07:52:00,67.0,65.0,29.72,WNW,303,13.0,29.0,93,0.66,,,0.11,,2013-09-22 11:52:00,
2013-09-22 08:12:00,67.0,66.0,29.72,NW,311,9.0,29.0,95,0.18,,,0.14,,2013-09-22 12:12:00,
2013-09-22 08:22:00,66.0,65.0,29.72,WSW,257,7.0,12.0,96,0.00,,,0.14,,2013-09-22 12:22:00,
2013-09-22 08:42:00,67.0,66.0,29.72,West,275,8.0,13.0,96,0.00,,,0.16,,2013-09-22 12:42:00,
2013-09-22 08:52:00,67.0,66.0,29.72,West,279,9.0,16.0,96,0.04,,,0.16,,2013-09-22 12:52:00,
2013-09-22 09:12:00,66.0,65.0,29.72,West,277,8.0,14.0,97,0.04,,,0.18,,2013-09-22 13:12:00,
2013-09-22 09:22:00,66.0,65.0,29.72,WNW,290,5.0,10.0,97,0.14,,,0.21,,2013-09-22 13:22:00,
2013-09-22 09:42:00,66.0,65.0,29.73,WNW,286,5.0,10.0,96,0.08,,,0.22,,2013-09-22 13:42:00,
2013-09-22 09:52:00,66.0,65.0,29.73,West,276,5.0,9.0,96,0.00,,,0.22,,2013-09-22 13:52:00,
2013-09-22 10:11:00,66.0,65.0,29.72,NW,307,5.0,9.0,96,0.00,,,0.22,,2013-09-22 14:11:00,
2013-09-22 10:22:00,66.0,65.0,29.72,WNW,300,4.0,8.0,96,0.00,,,0.23,,2013-09-22 14:22:00,
2013-09-22 10:32:00,66.0,65.0,29.72,WNW,300,4.0,8.0,96,0.00,,,0.23,,2013-09-22 14:32:00,
2013-09-22 10:42:00,66.0,65.0,29.72,WNW,300,4.0,8.0,96,0.00,,,0.23,,2013-09-22 14:42:00,
2013-09-22 10:52:00,66.0,65.0,29.72,WNW,300,4.0,8.0,96,0.00,,,0.23,,2013-09-22 14:52:00,
2013-09-22 20:53:00,60.0,52.0,29.80,North,355,2.0,5.0,74,0.00,,,0.23,,2013-09-23 00:53:00,
2013-09-22 21:12:00,60.0,52.0,29.81,NNW,335,2.0,8.0,74,0.00,,,0.23,,2013-09-23 01:12:00,
2013-09-22 21:22:00,59.0,51.0,29.81,NE,35,2.0,8.0,74,0.00,,,0.23,,2013-09-23 01:22:00,
2013-09-22 21:43:00,59.0,51.0,29.81,ENE,65,2.0,6.0,74,0.00,,,0.23,,2013-09-23 01:43:00,
2013-09-22 21:52:00,59.0,51.0,29.82,NNW,348,1.0,6.0,76,0.00,,,0.23,,2013-09-23 01:52:00,
2013-09-22 22:11:00,58.0,50.0,29.83,NNE,24,1.0,7.0,76,0.00,,,0.23,,2013-09-23 02:11:00,
2013-09-22 22:22:00,58.0,50.0,29.83,NE,46,2.0,7.0,76,0.00,,,0.23,,2013-09-23 02:22:00,
2013-09-22 22:42:00,57.0,50.0,29.83,NNE,19,1.0,8.0,77,0.00,,,0.23,,2013-09-23 02:42:00,
2013-09-22 22:52:00,57.0,50.0,29.84,NE,50,1.0,7.0,77,0.00,,,0.23,,2013-09-23 02:52:00,
2013-09-22 23:12:00,57.0,50.0,29.84,NE,55,1.0,7.0,78,0.00,,,0.23,,2013-09-23 03:12:00,
2013-09-22 23:23:00,56.0,50.0,29.85,NE,34,1.0,6.0,79,0.00,,,0.23,,2013-09-23 03:23:00,
2013-09-22 23:54:00,56.0,50.0,29.85,ENE,72,0.0,8.0,81,0.00,,,0.23,,2013-09-23 03:54:00,